Time;durP1;ratioP1;P1;durP2;ratioP2;P2;SDS_P1;SDS_P2;PMS_P1;PMS_P2;Temp;Humidity;BMP_temperature;BMP_pressure;BME280_temperature;BME280_humidity;BME280_pressure;Samples;Min_cycle;Max_cycle;Signal;HPM_P1;HPM_P2
2021/12/17 00:04:38;;;;;;;83.67;12.97;;;;;;;-145.18;100.00;47551.22;5066951;28;20278;-74
2021/12/17 00:07:09;;;;;;;46.57;12.47;;;;;;;-145.18;100.00;47551.22;5066929;28;20270;-73
2021/12/17 00:09:34;;;;;;;63.87;13.13;;;;;;;-145.18;100.00;47539.50;5066440;28;20282;-73
2021/12/17 00:12:00;;;;;;;82.30;12.93;;;;;;;-145.18;100.00;47559.03;5066406;28;20758;-74
2021/12/17 00:14:35;;;;;;;111.30;12.83;;;;;;;-145.18;100.00;47551.22;5066517;28;20036;-73
2021/12/17 00:17:03;;;;;;;71.05;12.38;;;;;;;-145.18;100.00;47561.00;5066894;28;20043;-73
2021/12/17 00:48:23;;;;;;;127.80;14.33;;;;;;;-145.18;100.00;47549.25;5067035;28;20352;-73
2021/12/17 00:49:20;;;;;;;257.10;19.20;;;;;;;-145.18;100.00;47547.31;5066608;28;20265;-74
2021/12/17 00:54:29;;;;;;;122.80;13.87;;;;;;;-145.18;100.00;47562.94;5066511;28;20296;-73
2021/12/17 00:56:57;;;;;;;128.90;13.13;;;;;;;-145.18;100.00;47564.91;5066595;28;20328;-74
2021/12/17 00:59:23;;;;;;;106.07;11.80;;;;;;;-145.18;100.00;47557.06;5066442;28;20323;-73
2021/12/17 01:01:51;;;;;;;153.67;14.13;;;;;;;-145.18;100.00;47578.56;5065969;28;20325;-73
2021/12/17 01:04:16;;;;;;;86.33;12.77;;;;;;;-145.18;100.00;47555.13;5066671;28;20273;-73
2021/12/17 01:06:42;;;;;;;161.10;14.67;;;;;;;-145.18;100.00;47559.03;5066257;28;20270;-73
2021/12/17 01:09:09;;;;;;;45.23;12.63;;;;;;;-145.18;100.00;47557.06;5066137;28;20400;-73
2021/12/17 01:11:36;;;;;;;86.57;12.87;;;;;;;-145.18;100.00;47553.16;5066536;28;20064;-73
2021/12/17 01:14:03;;;;;;;106.83;14.23;;;;;;;-145.18;100.00;47559.03;5066409;28;20328;-73
2021/12/17 01:16:30;;;;;;;131.10;14.63;;;;;;;-145.18;100.00;47578.56;5066301;28;20273;-73
2021/12/17 01:19:24;;;;;;;109.97;12.80;;;;;;;-145.18;100.00;47564.91;5066093;28;20281;-73
2021/12/17 01:22:02;;;;;;;131.73;12.77;;;;;;;-145.18;100.00;47572.72;5046508;28;20270;-73
2021/12/17 01:24:53;;;;;;;112.50;11.03;;;;;;;-145.18;100.00;47566.84;5046584;28;20265;-73
2021/12/17 01:35:35;;;;;;;75.13;9.13;;;;;;;-145.18;100.00;47539.50;5049399;28;20315;-73
2021/12/17 01:39:21;;;;;;;75.47;8.60;;;;;;;-145.18;100.00;47568.81;5048073;28;20258;-73
2021/12/17 01:43:31;;;;;;;51.40;8.57;;;;;;;-145.18;100.00;47561.00;5049379;28;20056;-73
2021/12/17 01:45:57;;;;;;;72.80;8.03;;;;;;;-145.18;100.00;47557.06;5049344;28;20766;-73
2021/12/17 01:48:29;;;;;;;123.47;10.23;;;;;;;-145.18;100.00;47555.13;5049121;28;20267;-73
2021/12/17 01:56:51;;;;;;;136.30;9.70;;;;;;;-145.18;100.00;47557.06;5048382;28;20284;-72
2021/12/17 01:59:26;;;;;;;101.83;10.00;;;;;;;-145.18;100.00;47551.22;5049150;28;20266;-73
2021/12/17 02:02:01;;;;;;;157.98;9.75;;;;;;;-145.18;100.00;47555.13;5048858;28;20365;-73
2021/12/17 02:04:26;;;;;;;121.10;9.20;;;;;;;-145.18;100.00;47557.06;5049336;28;20033;-72
2021/12/17 02:06:52;;;;;;;167.47;10.50;;;;;;;-145.18;100.00;47557.06;5049006;28;20662;-73
2021/12/17 02:12:19;;;;;;;172.53;9.97;;;;;;;-145.18;100.00;47576.63;5049150;28;20049;-72
2021/12/17 02:20:28;;;;;;;208.10;10.97;;;;;;;-145.18;100.00;47564.91;5048596;28;20821;-72
2021/12/17 02:28:40;;;;;;;178.35;10.73;;;;;;;-145.18;100.00;47555.13;5048557;28;20320;-72
2021/12/17 02:28:45;;;;;;;149.87;12.47;;;;;;;-145.18;100.00;47561.00;5048658;28;20781;-72
2021/12/17 02:31:28;;;;;;;200.37;12.03;;;;;;;-145.18;100.00;47551.22;5048507;28;20806;-72
2021/12/17 02:33:59;;;;;;;183.27;11.87;;;;;;;-145.18;100.00;47578.56;5048376;28;20368;-72
2021/12/17 02:36:31;;;;;;;159.20;10.50;;;;;;;-145.18;100.00;47566.84;5048165;28;20344;-72
2021/12/17 02:39:11;;;;;;;131.27;10.20;;;;;;;-145.18;100.00;47572.72;5048427;28;20324;-72
2021/12/17 02:47:07;;;;;;;117.30;9.87;;;;;;;-145.18;100.00;47557.06;5048328;28;20261;-72
2021/12/17 02:49:33;;;;;;;148.57;13.63;;;;;;;-145.18;100.00;47568.81;5046599;28;20282;-72
2021/12/17 02:51:59;;;;;;;146.87;10.77;;;;;;;-145.18;100.00;47559.03;5048114;28;20328;-72
2021/12/17 02:54:26;;;;;;;174.33;12.30;;;;;;;-145.18;100.00;47549.25;5047984;28;20505;-73
2021/12/17 02:56:51;;;;;;;160.53;12.17;;;;;;;-145.18;100.00;47570.75;5048192;28;20274;-72
2021/12/17 02:59:17;;;;;;;168.00;12.67;;;;;;;-145.18;100.00;47574.66;5048210;28;20269;-73
2021/12/17 03:01:45;;;;;;;180.80;11.87;;;;;;;-145.18;100.00;47572.72;5048646;28;20049;-72
2021/12/17 03:04:12;;;;;;;140.23;11.67;;;;;;;-145.18;100.00;47551.22;5047701;28;20262;-72
2021/12/17 03:06:40;;;;;;;196.53;11.80;;;;;;;-145.18;100.00;47547.31;5047969;28;20288;-72
2021/12/17 03:09:06;;;;;;;133.40;13.23;;;;;;;-145.18;100.00;47547.31;5047472;28;20766;-72
2021/12/17 03:11:31;;;;;;;169.23;12.77;;;;;;;-145.18;100.00;47557.06;5048033;28;20273;-72
2021/12/17 03:13:56;;;;;;;202.10;12.50;;;;;;;-145.18;100.00;47553.16;5047544;28;20052;-72
2021/12/17 03:16:34;;;;;;;170.10;12.03;;;;;;;-145.18;100.00;47559.03;5047651;28;20037;-72
2021/12/17 03:24:09;;;;;;;156.20;12.23;;;;;;;-145.18;100.00;47574.66;5047626;28;20091;-72
2021/12/17 03:26:35;;;;;;;139.50;12.73;;;;;;;-145.18;100.00;47559.03;5047755;28;20270;-73
2021/12/17 03:29:06;;;;;;;142.30;13.13;;;;;;;-145.18;100.00;47555.13;5047047;28;20044;-72
2021/12/17 03:31:32;;;;;;;179.80;15.93;;;;;;;-145.18;100.00;47547.31;5047613;28;20270;-73
2021/12/17 03:36:40;;;;;;;151.87;14.20;;;;;;;-145.18;100.00;47564.91;5047418;28;20037;-73
2021/12/17 03:39:06;;;;;;;176.53;14.43;;;;;;;-145.18;100.00;47547.31;5045931;28;20274;-73
2021/12/17 03:41:39;;;;;;;140.00;15.10;;;;;;;-145.18;100.00;47566.84;5047135;28;20541;-72
2021/12/17 03:44:08;;;;;;;177.40;15.63;;;;;;;-145.18;100.00;47557.06;5047059;28;20477;-73
2021/12/17 03:46:34;;;;;;;141.37;13.50;;;;;;;-145.18;100.00;47535.59;5047310;28;20298;-73
2021/12/17 03:49:00;;;;;;;146.40;15.57;;;;;;;-145.18;100.00;47535.59;5046095;28;20290;-73
2021/12/17 03:51:27;;;;;;;121.23;13.97;;;;;;;-145.18;100.00;47545.34;5047704;28;20317;-72
2021/12/17 03:53:59;;;;;;;123.30;14.67;;;;;;;-145.18;100.00;47566.84;5046975;28;20033;-73
2021/12/17 03:56:26;;;;;;;151.77;15.70;;;;;;;-145.18;100.00;47543.41;5047329;28;20258;-73
2021/12/17 03:58:54;;;;;;;113.90;15.33;;;;;;;-145.18;100.00;47557.06;5046668;28;20289;-73
2021/12/17 04:01:21;;;;;;;90.27;14.20;;;;;;;-145.18;100.00;47549.25;5047022;28;20726;-73
2021/12/17 04:03:46;;;;;;;132.63;15.83;;;;;;;-145.18;100.00;47547.31;5046611;28;20282;-73
2021/12/17 04:06:13;;;;;;;117.10;13.53;;;;;;;-145.18;100.00;47547.31;5046794;28;20348;-73
2021/12/17 04:08:38;;;;;;;113.13;15.47;;;;;;;-145.18;100.00;47553.16;5047029;28;20033;-73
2021/12/17 04:11:06;;;;;;;113.00;14.93;;;;;;;-145.18;100.00;47574.66;5046331;28;20355;-73
2021/12/17 04:13:36;;;;;;;78.50;12.97;;;;;;;-145.18;100.00;47564.91;5047935;28;20116;-73
2021/12/17 04:16:07;;;;;;;87.53;16.20;;;;;;;-145.18;100.00;47547.31;5046780;28;20359;-73
2021/12/17 04:18:38;;;;;;;102.30;15.80;;;;;;;-145.18;100.00;47555.13;5046975;28;20266;-73
2021/12/17 04:21:09;;;;;;;77.83;14.13;;;;;;;-145.18;100.00;47549.25;5046642;28;20273;-73
2021/12/17 04:23:34;;;;;;;107.10;15.43;;;;;;;-145.18;100.00;47564.91;5047007;28;20346;-73
2021/12/17 04:26:00;;;;;;;66.80;13.63;;;;;;;-145.18;100.00;47543.41;5046601;28;20412;-73
2021/12/17 04:28:26;;;;;;;75.77;14.23;;;;;;;-145.18;100.00;47539.50;5046768;28;20494;-73
2021/12/17 04:30:51;;;;;;;75.50;15.87;;;;;;;-145.18;100.00;47541.44;5046236;28;20033;-73
2021/12/17 04:33:17;;;;;;;114.47;14.70;;;;;;;-145.18;100.00;47533.63;5047009;28;20037;-73
2021/12/17 04:35:43;;;;;;;166.87;16.67;;;;;;;-145.18;100.00;47547.31;5047018;28;20429;-73
2021/12/17 04:38:11;;;;;;;93.47;14.20;;;;;;;-145.18;100.00;47531.69;5046626;28;20502;-73
2021/12/17 04:40:38;;;;;;;90.73;14.23;;;;;;;-145.18;100.00;47541.44;5046804;28;20278;-73
2021/12/17 04:45:59;;;;;;;91.10;14.50;;;;;;;-145.18;100.00;47555.13;5046361;28;20273;-73
2021/12/17 04:59:21;;;;;;;61.17;14.43;;;;;;;-145.18;100.00;47539.50;5048028;28;20349;-73
2021/12/17 05:01:47;;;;;;;64.00;14.30;;;;;;;-145.18;100.00;47533.63;5050207;28;20278;-72
2021/12/17 05:04:13;;;;;;;78.13;18.20;;;;;;;-145.18;100.00;47549.25;5049820;28;20044;-72
2021/12/17 05:06:38;;;;;;;48.80;13.30;;;;;;;-145.18;100.00;47527.78;5050326;28;20646;-73
2021/12/17 05:09:22;;;;;;;73.07;15.30;;;;;;;-145.18;100.00;47551.22;5049927;28;20048;-73
2021/12/17 05:20:28;;;;;;;57.20;12.47;;;;;;;-145.18;100.00;47527.78;5037501;28;20281;-73
2021/12/17 05:22:57;;;;;;;57.00;12.87;;;;;;;-145.18;100.00;47549.25;5049975;28;20270;-73
2021/12/17 05:25:26;;;;;;;50.00;12.37;;;;;;;-145.18;100.00;47533.63;5049534;28;20289;-73
2021/12/17 05:27:53;;;;;;;44.00;12.07;;;;;;;-145.18;100.00;47529.72;5049731;28;20289;-73
2021/12/17 05:30:18;;;;;;;46.93;11.63;;;;;;;-145.18;100.00;47529.72;5049430;28;20702;-73
2021/12/17 05:32:43;;;;;;;41.83;10.53;;;;;;;-145.18;100.00;47527.78;5049828;28;20316;-73
2021/12/17 05:35:09;;;;;;;49.60;13.40;;;;;;;-145.18;100.00;47521.91;5049118;28;20037;-73
2021/12/17 05:37:34;;;;;;;45.50;11.43;;;;;;;-145.18;100.00;47539.50;5050775;28;20417;-73
2021/12/17 05:40:00;;;;;;;53.70;13.27;;;;;;;-145.18;100.00;47525.81;5060668;28;20120;-73
2021/12/17 05:42:25;;;;;;;36.80;10.90;;;;;;;-145.18;100.00;47539.50;5058720;28;20421;-73
2021/12/17 05:44:55;;;;;;;36.83;12.00;;;;;;;-145.18;100.00;47543.41;5048865;28;20056;-73
2021/12/17 05:47:21;;;;;;;41.33;11.70;;;;;;;-145.18;100.00;47523.88;5049625;28;20122;-73
2021/12/17 05:49:46;;;;;;;50.03;13.00;;;;;;;-145.18;100.00;47545.34;5047599;28;20767;-73
2021/12/17 05:52:12;;;;;;;64.73;14.23;;;;;;;-145.18;100.00;47523.88;5049397;28;20067;-73
2021/12/17 05:54:37;;;;;;;50.07;12.67;;;;;;;-145.18;100.00;47535.59;5049355;28;20045;-73
2021/12/17 05:57:03;;;;;;;49.03;13.90;;;;;;;-145.18;100.00;47531.69;5049859;28;20489;-73
2021/12/17 05:59:34;;;;;;;43.23;13.70;;;;;;;-145.18;100.00;47527.78;5049007;28;20037;-73
2021/12/17 06:02:01;;;;;;;68.50;14.80;;;;;;;-145.18;100.00;47535.59;5049169;28;20056;-73
2021/12/17 06:04:26;;;;;;;50.83;13.90;;;;;;;-145.18;100.00;47518.00;5048874;28;20281;-73
2021/12/17 06:06:51;;;;;;;52.83;14.33;;;;;;;-145.18;100.00;47541.44;5050902;28;20271;-73
2021/12/17 06:09:17;;;;;;;63.27;16.63;;;;;;;-145.18;100.00;47525.81;5047881;28;20037;-74
2021/12/17 06:11:42;;;;;;;59.27;15.27;;;;;;;-145.18;100.00;47529.72;5050774;28;20095;-74
2021/12/17 06:14:08;;;;;;;62.70;14.40;;;;;;;-145.18;100.00;47531.69;5065622;28;20033;-73
2021/12/17 06:16:34;;;;;;;70.17;15.93;;;;;;;-145.18;100.00;47521.91;5067672;28;20114;-73
2021/12/17 06:19:03;;;;;;;89.10;18.03;;;;;;;-145.18;100.00;47543.41;5068132;28;20535;-73
2021/12/17 06:21:28;;;;;;;66.77;16.00;;;;;;;-145.18;100.00;47508.22;5067293;28;20383;-73
2021/12/17 06:23:54;;;;;;;87.90;19.03;;;;;;;-145.18;100.00;47523.88;5068688;28;20312;-73
2021/12/17 06:26:19;;;;;;;60.83;16.53;;;;;;;-145.18;100.00;47545.34;5068533;28;20033;-73
2021/12/17 06:28:49;;;;;;;86.03;20.60;;;;;;;-145.18;100.00;47543.41;5067492;28;20127;-73
2021/12/17 06:31:15;;;;;;;79.27;21.10;;;;;;;-145.18;100.00;47535.59;5068032;28;20515;-73
2021/12/17 06:33:41;;;;;;;83.00;21.90;;;;;;;-145.18;100.00;47566.84;5069354;28;20273;-73
2021/12/17 06:36:06;;;;;;;77.77;20.90;;;;;;;-145.18;100.00;47523.88;5067849;28;20064;-73
2021/12/17 06:38:31;;;;;;;102.63;24.40;;;;;;;-145.18;100.00;47519.97;5068831;28;20043;-73
2021/12/17 06:40:58;;;;;;;100.83;26.13;;;;;;;-145.18;100.00;47531.69;5066644;28;20691;-73
2021/12/17 06:43:30;;;;;;;82.63;21.07;;;;;;;-145.18;100.00;47541.44;5068202;28;20051;-72
2021/12/17 06:46:05;;;;;;;81.20;24.23;;;;;;;-145.18;100.00;47527.78;5067962;28;20357;-72
2021/12/17 06:48:32;;;;;;;87.73;25.90;;;;;;;-145.18;100.00;47537.53;5066819;28;20268;-72
2021/12/17 06:57:10;;;;;;;87.83;24.83;;;;;;;-145.18;100.00;47551.22;5059570;28;20284;-73
2021/12/17 07:19:31;;;;;;;90.43;23.87;;;;;;;-145.18;100.00;47547.31;5061378;28;20280;-72
2021/12/17 07:39:35;;;;;;;80.77;24.37;;;;;;;-145.18;100.00;47529.72;5075283;28;20412;-72
2021/12/17 07:42:02;;;;;;;60.73;22.73;;;;;;;-145.18;100.00;47529.72;5065948;28;20442;-72
2021/12/17 07:44:27;;;;;;;70.23;22.50;;;;;;;-145.18;100.00;47533.63;5071667;28;20059;-72
2021/12/17 07:46:53;;;;;;;68.87;23.00;;;;;;;-145.18;100.00;47543.41;5075259;28;20284;-72
2021/12/17 07:49:18;;;;;;;117.80;26.17;;;;;;;-145.18;100.00;47516.06;5072058;28;20093;-71
2021/12/17 07:51:43;;;;;;;74.07;22.83;;;;;;;-145.18;100.00;47537.53;5076693;28;20417;-72
2021/12/17 07:54:09;;;;;;;73.30;24.17;;;;;;;-145.18;100.00;47533.63;5073020;28;20040;-72
2021/12/17 07:56:37;;;;;;;63.57;23.53;;;;;;;-145.18;100.00;47512.16;5074232;28;20040;-72
2021/12/17 07:59:08;;;;;;;76.30;23.73;;;;;;;-145.18;100.00;47519.97;5077293;28;20489;-72
2021/12/17 08:01:36;;;;;;;63.77;23.30;;;;;;;-145.18;100.00;47527.78;5077229;28;20318;-72
2021/12/17 08:04:06;;;;;;;94.27;24.90;;;;;;;-145.18;100.00;47543.41;5074938;28;20289;-72
2021/12/17 08:06:34;;;;;;;68.57;23.17;;;;;;;-145.18;100.00;47531.69;5083094;28;20269;-72
2021/12/17 08:08:59;;;;;;;70.00;23.57;;;;;;;-145.18;100.00;47527.78;5066302;28;20744;-72
2021/12/17 08:11:25;;;;;;;65.13;22.20;;;;;;;-145.18;100.00;47523.88;5072487;28;20265;-72
2021/12/17 08:13:53;;;;;;;68.90;23.23;;;;;;;-145.18;100.00;47516.06;5076302;28;20043;-72
2021/12/17 08:31:26;;;;;;;66.40;19.30;;;;;;;-145.18;100.00;47523.88;5077508;28;20261;-71
2021/12/17 08:33:52;;;;;;;60.27;19.20;;;;;;;-145.18;100.00;47539.50;5078814;28;20281;-72
2021/12/17 08:36:19;;;;;;;63.90;21.20;;;;;;;-145.18;100.00;47531.69;5084457;28;20039;-71
2021/12/17 08:38:46;;;;;;;51.13;19.17;;;;;;;-145.18;100.00;47539.50;5077959;28;20271;-72
2021/12/17 08:41:13;;;;;;;47.40;16.30;;;;;;;-145.18;100.00;47533.63;5084635;28;20273;-71
2021/12/17 08:43:41;;;;;;;42.83;14.00;;;;;;;-145.18;100.00;47521.91;5070055;28;20253;-71
2021/12/17 08:46:06;;;;;;;42.20;13.77;;;;;;;-145.18;100.00;47527.78;5069891;28;20745;-71
2021/12/17 08:48:32;;;;;;;40.70;12.90;;;;;;;-145.18;100.00;47553.16;5069999;28;20285;-71
2021/12/17 08:50:59;;;;;;;30.37;11.73;;;;;;;-145.18;100.00;47533.63;5069654;28;20041;-71
2021/12/17 08:53:24;;;;;;;38.87;13.20;;;;;;;-145.18;100.00;47539.50;5080216;28;20295;-71
2021/12/17 08:55:51;;;;;;;37.97;14.83;;;;;;;-145.18;100.00;47527.78;5077974;28;20356;-72
2021/12/17 08:58:16;;;;;;;35.70;13.57;;;;;;;-145.18;100.00;47529.72;5070510;28;20103;-71
2021/12/17 09:00:43;;;;;;;36.60;12.47;;;;;;;-145.18;100.00;47514.09;5086820;28;20849;-71
2021/12/17 09:03:09;;;;;;;43.07;12.73;;;;;;;-145.18;100.00;47531.69;5072301;28;20055;-71
2021/12/17 09:05:40;;;;;;;38.07;11.37;;;;;;;-145.18;100.00;47519.97;5082280;28;20270;-71
2021/12/17 09:08:07;;;;;;;41.10;12.47;;;;;;;-145.18;100.00;47531.69;5077651;28;20761;-71
2021/12/17 09:10:34;;;;;;;38.47;13.70;;;;;;;-145.18;100.00;47521.91;5079056;28;20325;-71
2021/12/17 09:13:00;;;;;;;38.80;14.87;;;;;;;-145.18;100.00;47527.78;5080753;28;20311;-71
2021/12/17 09:15:26;;;;;;;43.93;13.97;;;;;;;-145.18;100.00;47535.59;5079112;28;20285;-71
2021/12/17 09:17:51;;;;;;;45.27;13.27;;;;;;;-145.18;100.00;47533.63;5073634;28;20909;-71
2021/12/17 09:20:17;;;;;;;33.37;11.20;;;;;;;-145.18;100.00;47527.78;5084936;28;20100;-71
2021/12/17 09:22:43;;;;;;;36.43;12.10;;;;;;;-145.18;100.00;47504.31;5068585;28;20086;-71
2021/12/17 09:25:09;;;;;;;35.13;12.00;;;;;;;-145.18;100.00;47531.69;5067566;28;20037;-71
2021/12/17 09:27:34;;;;;;;35.07;11.20;;;;;;;-145.18;100.00;47535.59;5069416;28;20040;-71
2021/12/17 09:30:00;;;;;;;34.63;12.60;;;;;;;-145.18;100.00;47516.06;5078541;28;20044;-72
2021/12/17 09:32:26;;;;;;;40.53;13.00;;;;;;;-145.18;100.00;47537.53;5087864;28;20097;-72
2021/12/17 09:34:51;;;;;;;32.43;11.67;;;;;;;-145.18;100.00;47525.81;5070023;28;20033;-71
2021/12/17 09:37:17;;;;;;;31.87;10.07;;;;;;;-145.18;100.00;47529.72;5076980;28;20396;-71
2021/12/17 09:39:43;;;;;;;33.10;11.43;;;;;;;-145.18;100.00;47512.16;5088969;28;20048;-71
2021/12/17 09:42:08;;;;;;;29.50;11.57;;;;;;;-145.18;100.00;47514.09;5074382;28;20047;-71
2021/12/17 09:44:34;;;;;;;24.63;9.40;;;;;;;-145.18;100.00;47510.19;5071721;28;20051;-71
2021/12/17 09:47:00;;;;;;;30.10;9.97;;;;;;;-145.18;100.00;47518.00;5066944;28;20041;-71
2021/12/17 09:49:26;;;;;;;32.10;9.83;;;;;;;-145.18;100.00;47508.22;5067839;28;20049;-71
2021/12/17 09:51:52;;;;;;;25.97;8.97;;;;;;;-145.18;100.00;47518.00;5077918;28;20264;-71
2021/12/17 09:54:18;;;;;;;24.90;8.37;;;;;;;-145.18;100.00;47504.31;5084171;28;20276;-71
2021/12/17 09:56:45;;;;;;;27.30;8.87;;;;;;;-145.18;100.00;47496.50;5070966;28;20041;-71
2021/12/17 09:59:12;;;;;;;31.03;10.67;;;;;;;-145.18;100.00;47502.38;5077499;28;20368;-71
2021/12/17 10:01:39;;;;;;;28.67;10.47;;;;;;;-145.18;100.00;47471.13;5068117;28;20290;-72
2021/12/17 10:04:33;;;;;;;27.37;9.00;;;;;;;-145.18;100.00;47486.75;5081656;28;20307;-71
2021/12/17 10:07:17;;;;;;;28.10;8.17;;;;;;;-145.18;100.00;47484.78;5075818;28;20341;-71
2021/12/17 10:09:51;;;;;;;24.97;9.20;;;;;;;-145.18;100.00;47498.47;5058132;28;20347;-71
2021/12/17 10:12:21;;;;;;;25.17;8.83;;;;;;;-145.18;100.00;47494.56;5059671;28;20275;-71
2021/12/17 10:15:11;;;;;;;27.13;8.77;;;;;;;-145.18;100.00;47494.56;5068141;28;20758;-71
2021/12/17 10:18:01;;;;;;;26.03;9.03;;;;;;;-145.18;100.00;47496.50;5075638;28;20284;-71
2021/12/17 10:20:29;;;;;;;22.87;8.33;;;;;;;-145.18;100.00;47492.59;5070015;28;20797;-72
2021/12/17 10:23:06;;;;;;;22.10;7.80;;;;;;;-145.18;100.00;47500.41;5066007;28;20800;-72
2021/12/17 10:25:35;;;;;;;17.37;7.03;;;;;;;-145.18;100.00;47476.97;5055277;28;20266;-71
2021/12/17 10:28:04;;;;;;;16.47;6.80;;;;;;;-145.18;100.00;47502.38;5060687;28;20754;-71
2021/12/17 10:30:36;;;;;;;19.80;6.60;;;;;;;-145.18;100.00;47494.56;5066593;28;20276;-71
2021/12/17 10:33:06;;;;;;;18.53;6.27;;;;;;;-145.18;100.00;47478.94;5082983;28;20266;-71
2021/12/17 10:35:34;;;;;;;19.13;6.70;;;;;;;-145.18;100.00;47488.69;5067799;28;20280;-72
2021/12/17 10:38:12;;;;;;;17.20;6.43;;;;;;;-145.18;100.00;47471.13;5080654;28;20277;-71
2021/12/17 10:40:44;;;;;;;14.63;6.13;;;;;;;-145.18;100.00;47486.75;5069616;28;20356;-72
2021/12/17 10:43:27;;;;;;;15.87;5.90;;;;;;;-145.18;100.00;47473.06;5059155;28;20273;-72
2021/12/17 10:46:06;;;;;;;16.10;6.60;;;;;;;-145.18;100.00;47498.47;5057405;28;20280;-71
2021/12/17 10:54:07;;;;;;;15.38;5.93;;;;;;;-145.18;100.00;47488.69;5070309;28;20281;-72
2021/12/17 10:56:33;;;;;;;17.57;6.53;;;;;;;-145.18;100.00;47488.69;5071729;28;20101;-71
2021/12/17 10:59:05;;;;;;;12.07;5.87;;;;;;;-145.18;100.00;47488.69;5087359;28;20265;-72
2021/12/17 11:01:44;;;;;;;13.80;6.27;;;;;;;-145.18;100.00;47484.78;5086591;28;20269;-72
2021/12/17 11:04:14;;;;;;;14.27;5.67;;;;;;;-145.18;100.00;47502.38;5086235;28;20269;-72
2021/12/17 11:07:00;;;;;;;13.30;5.47;;;;;;;-145.18;100.00;47476.97;5087209;28;20280;-72
2021/12/17 11:09:43;;;;;;;16.42;6.18;;;;;;;-145.18;100.00;47488.69;5067313;28;20265;-72
2021/12/17 11:12:33;;;;;;;13.10;5.97;;;;;;;-145.18;100.00;47469.16;5066260;28;20051;-72
2021/12/17 11:15:08;;;;;;;14.90;5.50;;;;;;;-145.18;100.00;47476.97;5047382;28;20269;-72
2021/12/17 11:17:34;;;;;;;13.27;5.43;;;;;;;-145.18;100.00;47492.59;5066872;28;20693;-71
2021/12/17 11:20:03;;;;;;;13.00;5.70;;;;;;;-145.18;100.00;47484.78;5067033;28;20273;-72
2021/12/17 11:22:30;;;;;;;14.47;5.87;;;;;;;-145.18;100.00;47484.78;5086935;28;20036;-72
2021/12/17 11:24:58;;;;;;;16.10;5.70;;;;;;;-145.18;100.00;47492.59;5087373;28;20269;-73
2021/12/17 11:27:24;;;;;;;12.73;5.70;;;;;;;-145.18;100.00;47486.75;5078607;28;20273;-72
2021/12/17 11:29:50;;;;;;;13.87;6.53;;;;;;;-145.18;100.00;47469.16;5065620;28;20269;-72
2021/12/17 11:32:18;;;;;;;15.43;6.03;;;;;;;-145.18;100.00;47498.47;5066281;28;20607;-72
2021/12/17 11:34:44;;;;;;;11.97;5.70;;;;;;;-145.18;100.00;47490.66;5070090;28;20492;-72
2021/12/17 11:37:10;;;;;;;18.53;6.53;;;;;;;-145.18;100.00;47494.56;5077240;28;20363;-75
2021/12/17 11:39:46;;;;;;;12.37;5.83;;;;;;;-145.18;100.00;47461.34;5068314;28;20047;-74
2021/12/17 11:42:53;;;;;;;14.15;6.22;;;;;;;-145.18;100.00;47496.50;5084291;28;20261;-72
2021/12/17 11:45:23;;;;;;;13.57;6.73;;;;;;;-145.18;100.00;47498.47;5075696;28;20112;-72
2021/12/17 11:47:50;;;;;;;15.57;7.10;;;;;;;-145.18;100.00;47506.28;5078160;28;20277;-72
2021/12/17 11:50:17;;;;;;;17.50;7.60;;;;;;;-145.18;100.00;47496.50;5077166;28;20350;-72
2021/12/17 11:52:44;;;;;;;14.97;6.57;;;;;;;-145.18;100.00;47502.38;5079188;28;20410;-72
2021/12/17 11:55:34;;;;;;;12.13;6.00;;;;;;;-145.18;100.00;47461.34;5078052;28;20697;-72
2021/12/17 11:58:10;;;;;;;11.57;5.70;;;;;;;-145.18;100.00;47494.56;5066444;28;20278;-72
2021/12/17 12:00:41;;;;;;;16.42;6.72;;;;;;;-145.18;100.00;47476.97;5067606;28;20293;-72
2021/12/17 12:03:21;;;;;;;11.00;5.50;;;;;;;-145.18;100.00;47496.50;5073135;28;20126;-72
2021/12/17 12:05:49;;;;;;;13.30;6.00;;;;;;;-145.18;100.00;47494.56;5066168;28;20262;-72
2021/12/17 12:08:56;;;;;;;12.57;6.40;;;;;;;-145.18;100.00;47504.31;5065303;28;20293;-72
2021/12/17 12:11:26;;;;;;;13.23;5.45;;;;;;;-145.18;100.00;47488.69;5066432;28;20833;-72
2021/12/17 12:13:54;;;;;;;13.30;5.53;;;;;;;-145.18;100.00;47496.50;5066169;28;20139;-72
2021/12/17 12:16:20;;;;;;;11.77;5.93;;;;;;;-145.18;100.00;47480.88;5065922;28;20867;-72
2021/12/17 12:18:52;;;;;;;13.80;6.53;;;;;;;-145.18;100.00;47484.78;5064997;28;20774;-73
2021/12/17 12:21:23;;;;;;;13.83;6.40;;;;;;;-145.18;100.00;47488.69;5058352;28;20289;-73
2021/12/17 12:23:55;;;;;;;12.70;6.30;;;;;;;-145.18;100.00;47496.50;5052559;28;21126;-72
2021/12/17 12:26:25;;;;;;;12.20;5.97;;;;;;;-145.18;100.00;47473.06;5064837;28;20394;-72
2021/12/17 12:29:03;;;;;;;15.80;6.77;;;;;;;-145.18;100.00;47490.66;5065429;28;20733;-72
2021/12/17 12:31:32;;;;;;;13.37;6.57;;;;;;;-145.18;100.00;47480.88;5066278;28;20270;-72
2021/12/17 12:34:00;;;;;;;14.83;5.97;;;;;;;-145.18;100.00;47508.22;5062867;28;20626;-73
2021/12/17 12:36:52;;;;;;;14.73;7.20;;;;;;;-145.18;100.00;47514.09;5065681;28;20269;-73
2021/12/17 12:39:29;;;;;;;12.77;6.37;;;;;;;-145.18;100.00;47512.16;5069261;28;20277;-73
2021/12/17 12:41:55;;;;;;;13.90;6.37;;;;;;;-145.18;100.00;47496.50;5048322;28;20638;-73
2021/12/17 12:44:21;;;;;;;12.73;5.93;;;;;;;-145.18;100.00;47478.94;5062026;28;20277;-73
2021/12/17 12:46:55;;;;;;;11.70;5.70;;;;;;;-145.18;100.00;47512.16;5065082;28;20120;-73
2021/12/17 12:49:45;;;;;;;15.90;6.53;;;;;;;-145.18;100.00;47504.31;5065753;28;20060;-73
2021/12/17 12:52:29;;;;;;;16.40;6.97;;;;;;;-145.18;100.00;47500.41;5065813;28;20271;-73
2021/12/17 12:55:20;;;;;;;14.67;6.40;;;;;;;-145.18;100.00;47504.31;5066436;28;20782;-73
2021/12/17 12:57:46;;;;;;;16.30;6.87;;;;;;;-145.18;100.00;47498.47;5065018;28;20277;-73
2021/12/17 13:00:14;;;;;;;16.43;6.77;;;;;;;-145.18;100.00;47484.78;5080647;28;20261;-73
2021/12/17 13:02:41;;;;;;;15.30;6.57;;;;;;;-145.18;100.00;47492.59;5085449;28;20276;-73
2021/12/17 13:05:08;;;;;;;18.97;7.07;;;;;;;-145.18;100.00;47510.19;5085845;28;20278;-73
2021/12/17 13:07:36;;;;;;;14.90;7.20;;;;;;;-145.18;100.00;47498.47;5085846;28;20283;-72
2021/12/17 13:10:25;;;;;;;14.77;6.80;;;;;;;-145.18;100.00;47484.78;5085667;28;20293;-73
2021/12/17 13:13:03;;;;;;;15.70;7.10;;;;;;;-145.18;100.00;47502.38;5076328;28;20268;-73
2021/12/17 13:15:44;;;;;;;14.63;7.40;;;;;;;-145.18;100.00;47508.22;5086292;28;20269;-73
2021/12/17 13:21:00;;;;;;;15.48;7.57;;;;;;;-145.18;100.00;47518.00;5087889;28;20306;-73
2021/12/17 13:23:27;;;;;;;13.07;7.10;;;;;;;-145.18;100.00;47488.69;5072564;28;20044;-73
2021/12/17 13:26:06;;;;;;;14.50;7.23;;;;;;;-145.18;100.00;47506.28;5062002;28;23149;-73
2021/12/17 13:28:54;;;;;;;14.77;7.93;;;;;;;-145.18;100.00;47504.31;5060602;28;20359;-73
2021/12/17 13:31:35;;;;;;;16.37;8.10;;;;;;;-145.18;100.00;47514.09;5052108;28;20254;-73
2021/12/17 13:34:05;;;;;;;16.97;7.80;;;;;;;-145.18;100.00;47516.06;5069002;28;20292;-73
2021/12/17 13:36:31;;;;;;;10.03;6.17;;;;;;;-145.18;100.00;47492.59;5068352;28;20270;-73
2021/12/17 13:38:57;;;;;;;9.87;5.50;;;;;;;-145.18;100.00;47498.47;5068009;28;20280;-73
2021/12/17 13:41:37;;;;;;;12.90;6.27;;;;;;;-145.18;100.00;47518.00;5068822;28;20032;-73
2021/12/17 13:44:03;;;;;;;11.30;5.63;;;;;;;-145.18;100.00;47521.91;5068814;28;20273;-73
2021/12/17 13:46:29;;;;;;;11.07;7.17;;;;;;;-145.18;100.00;47537.53;5062412;28;20279;-73
2021/12/17 13:48:55;;;;;;;12.57;7.47;;;;;;;-145.18;100.00;47510.19;5060873;28;20281;-73
2021/12/17 13:51:20;;;;;;;14.33;8.80;;;;;;;-145.18;100.00;47504.31;5067472;28;20062;-73